Etzikom, Canada
Current Conditions -  °F | °C
As of 4:00 PM on Friday 28 Nov 2014 (Local Time) from CYXH Reporting Station
Light Snow Light Snow  
Wind Chill: -21°   Ceiling: 1800
Heat Index:   Visibility: 2.5mi
Dew Point: -4°   Wind: 16mph
Humidity: 85%   Direction: 320°NW
Pressure: 29.7"   Gusts: NA
Location:  49.48°N, 111.1°W
Report Text: CYXH 282300Z 32014KT 2 1/2SM -SN DRSN FEW009 OVC018 M18/M20 A2970 RMK ST2ST6 SLP101
Loading
Personal Weather Stations






























Interactive Weather Map New forecast layout! Learn more

10-Day Weather Forecast

Advertisements
Track Severe Weather on mobile